sensor_id;sensor_type;location;lat;lon;timestamp;pressure;altitude;pressure_sealevel;temperature;humidity
79376;BME280;68846;53.150;18.136;2023-04-15T00:00:13;100319.44;;;10.22;63.65
79376;BME280;68846;53.150;18.136;2023-04-15T00:03:01;100318.23;;;10.23;63.90
79376;BME280;68846;53.150;18.136;2023-04-15T00:05:29;100321.05;;;10.25;64.13
79376;BME280;68846;53.150;18.136;2023-04-15T00:07:57;100321.91;;;10.23;64.07
79376;BME280;68846;53.150;18.136;2023-04-15T00:10:27;100313.75;;;10.15;64.10
79376;BME280;68846;53.150;18.136;2023-04-15T00:12:53;100316.71;;;10.12;64.20
79376;BME280;68846;53.150;18.136;2023-04-15T00:15:20;100326.59;;;10.15;64.41
79376;BME280;68846;53.150;18.136;2023-04-15T00:17:49;100324.45;;;10.09;64.14
79376;BME280;68846;53.150;18.136;2023-04-15T00:20:17;100321.27;;;10.07;64.70
79376;BME280;68846;53.150;18.136;2023-04-15T00:22:44;100313.63;;;9.99;64.41
79376;BME280;68846;53.150;18.136;2023-04-15T00:25:11;100319.30;;;10.02;64.76
79376;BME280;68846;53.150;18.136;2023-04-15T00:27:39;100316.95;;;9.96;65.11
79376;BME280;68846;53.150;18.136;2023-04-15T00:30:06;100313.23;;;9.92;64.99
79376;BME280;68846;53.150;18.136;2023-04-15T00:32:34;100313.94;;;9.94;65.22
79376;BME280;68846;53.150;18.136;2023-04-15T00:35:01;100312.70;;;9.94;65.29
79376;BME280;68846;53.150;18.136;2023-04-15T00:37:28;100317.63;;;9.91;65.27
79376;BME280;68846;53.150;18.136;2023-04-15T00:39:56;100314.27;;;9.89;65.40
79376;BME280;68846;53.150;18.136;2023-04-15T00:42:23;100317.61;;;9.90;65.48
79376;BME280;68846;53.150;18.136;2023-04-15T00:44:51;100319.35;;;9.87;65.71
79376;BME280;68846;53.150;18.136;2023-04-15T00:47:19;100315.48;;;9.85;65.64
79376;BME280;68846;53.150;18.136;2023-04-15T00:49:46;100315.98;;;9.84;65.55
79376;BME280;68846;53.150;18.136;2023-04-15T00:52:13;100316.66;;;9.82;65.73
79376;BME280;68846;53.150;18.136;2023-04-15T00:54:40;100307.48;;;9.76;65.65
79376;BME280;68846;53.150;18.136;2023-04-15T00:57:08;100318.25;;;9.82;65.94
79376;BME280;68846;53.150;18.136;2023-04-15T00:59:35;100311.77;;;9.85;66.09
79376;BME280;68846;53.150;18.136;2023-04-15T01:02:02;100305.62;;;9.84;66.19
79376;BME280;68846;53.150;18.136;2023-04-15T01:04:30;100312.17;;;9.91;66.14
79376;BME280;68846;53.150;18.136;2023-04-15T01:06:57;100311.30;;;9.92;65.95
79376;BME280;68846;53.150;18.136;2023-04-15T01:09:24;100314.30;;;9.93;65.98
79376;BME280;68846;53.150;18.136;2023-04-15T01:11:52;100311.48;;;9.93;65.88
79376;BME280;68846;53.150;18.136;2023-04-15T01:14:20;100309.89;;;9.92;66.17
79376;BME280;68846;53.150;18.136;2023-04-15T01:16:46;100312.89;;;9.92;66.06
79376;BME280;68846;53.150;18.136;2023-04-15T01:19:15;100309.38;;;9.92;66.05
79376;BME280;68846;53.150;18.136;2023-04-15T01:21:44;100312.70;;;9.92;66.19
79376;BME280;68846;53.150;18.136;2023-04-15T01:24:12;100311.30;;;9.91;66.23
79376;BME280;68846;53.150;18.136;2023-04-15T01:26:39;100310.59;;;9.93;66.06
79376;BME280;68846;53.150;18.136;2023-04-15T01:29:08;100313.25;;;9.95;66.39
79376;BME280;68846;53.150;18.136;2023-04-15T01:31:35;100317.67;;;9.97;66.47
79376;BME280;68846;53.150;18.136;2023-04-15T01:34:03;100316.63;;;10.01;66.19
79376;BME280;68846;53.150;18.136;2023-04-15T01:36:30;100317.19;;;10.05;66.09
79376;BME280;68846;53.150;18.136;2023-04-15T01:38:57;100317.41;;;10.09;66.01
79376;BME280;68846;53.150;18.136;2023-04-15T01:41:25;100316.00;;;10.09;66.04
79376;BME280;68846;53.150;18.136;2023-04-15T01:43:53;100313.17;;;10.08;66.23
79376;BME280;68846;53.150;18.136;2023-04-15T01:46:20;100311.21;;;10.06;66.29
79376;BME280;68846;53.150;18.136;2023-04-15T01:48:47;100306.46;;;10.06;66.30
79376;BME280;68846;53.150;18.136;2023-04-15T01:51:13;100311.21;;;10.05;66.20
79376;BME280;68846;53.150;18.136;2023-04-15T01:53:40;100312.44;;;10.03;66.71
79376;BME280;68846;53.150;18.136;2023-04-15T01:56:08;100306.77;;;9.98;66.48
79376;BME280;68846;53.150;18.136;2023-04-15T01:58:35;100311.70;;;10.01;66.52
79376;BME280;68846;53.150;18.136;2023-04-15T02:01:03;100301.30;;;9.96;66.68
79376;BME280;68846;53.150;18.136;2023-04-15T02:03:32;100312.44;;;10.04;66.40
79376;BME280;68846;53.150;18.136;2023-04-15T02:05:59;100308.95;;;10.10;66.69
79376;BME280;68846;53.150;18.136;2023-04-15T02:08:28;100311.64;;;10.15;66.24
79376;BME280;68846;53.150;18.136;2023-04-15T02:10:55;100312.52;;;10.17;66.31
79376;BME280;68846;53.150;18.136;2023-04-15T02:13:22;100299.81;;;10.12;66.32
79376;BME280;68846;53.150;18.136;2023-04-15T02:15:49;100313.77;;;10.18;65.99
79376;BME280;68846;53.150;18.136;2023-04-15T02:18:19;100310.07;;;10.18;66.31
79376;BME280;68846;53.150;18.136;2023-04-15T02:20:46;100306.00;;;10.17;66.25
79376;BME280;68846;53.150;18.136;2023-04-15T02:23:13;100310.60;;;10.18;66.26
79376;BME280;68846;53.150;18.136;2023-04-15T02:25:43;100310.42;;;10.18;66.16
79376;BME280;68846;53.150;18.136;2023-04-15T02:28:10;100310.27;;;10.20;66.09
79376;BME280;68846;53.150;18.136;2023-04-15T02:30:37;100308.19;;;10.23;66.12
79376;BME280;68846;53.150;18.136;2023-04-15T02:33:04;100309.30;;;10.27;65.99
79376;BME280;68846;53.150;18.136;2023-04-15T02:35:32;100311.77;;;10.31;65.90
79376;BME280;68846;53.150;18.136;2023-04-15T02:37:59;100312.49;;;10.32;65.96
79376;BME280;68846;53.150;18.136;2023-04-15T02:40:29;100312.14;;;10.34;65.90
79376;BME280;68846;53.150;18.136;2023-04-15T02:42:56;100300.31;;;10.29;66.13
79376;BME280;68846;53.150;18.136;2023-04-15T02:45:22;100298.55;;;10.28;65.96
79376;BME280;68846;53.150;18.136;2023-04-15T02:47:53;100306.48;;;10.30;66.18
79376;BME280;68846;53.150;18.136;2023-04-15T02:50:20;100309.46;;;10.27;66.08
79376;BME280;68846;53.150;18.136;2023-04-15T02:52:49;100312.28;;;10.28;66.10
79376;BME280;68846;53.150;18.136;2023-04-15T02:55:16;100304.71;;;10.29;66.29
79376;BME280;68846;53.150;18.136;2023-04-15T02:57:43;100309.29;;;10.31;66.05
79376;BME280;68846;53.150;18.136;2023-04-15T03:00:11;100302.25;;;10.30;66.07
79376;BME280;68846;53.150;18.136;2023-04-15T03:02:40;100309.82;;;10.28;66.09
79376;BME280;68846;53.150;18.136;2023-04-15T03:05:12;100310.52;;;10.30;66.22
79376;BME280;68846;53.150;18.136;2023-04-15T03:07:41;100307.39;;;10.34;65.89
79376;BME280;68846;53.150;18.136;2023-04-15T03:10:08;100307.23;;;10.37;65.85
79376;BME280;68846;53.150;18.136;2023-04-15T03:12:36;100308.45;;;10.37;66.03
79376;BME280;68846;53.150;18.136;2023-04-15T03:15:03;100300.69;;;10.32;65.94
79376;BME280;68846;53.150;18.136;2023-04-15T03:17:35;100310.91;;;10.36;65.78
79376;BME280;68846;53.150;18.136;2023-04-15T03:20:04;100312.68;;;10.38;66.01
79376;BME280;68846;53.150;18.136;2023-04-15T03:22:32;100301.55;;;10.31;65.92
79376;BME280;68846;53.150;18.136;2023-04-15T03:24:59;100307.92;;;10.35;65.94
79376;BME280;68846;53.150;18.136;2023-04-15T03:27:26;100306.86;;;10.34;66.24
79376;BME280;68846;53.150;18.136;2023-04-15T03:29:54;100309.68;;;10.33;66.05
79376;BME280;68846;53.150;18.136;2023-04-15T03:32:23;100319.01;;;10.34;66.11
79376;BME280;68846;53.150;18.136;2023-04-15T03:34:50;100311.10;;;10.37;66.02
79376;BME280;68846;53.150;18.136;2023-04-15T03:37:18;100313.59;;;10.40;66.04
79376;BME280;68846;53.150;18.136;2023-04-15T03:39:45;100312.71;;;10.42;65.96
79376;BME280;68846;53.150;18.136;2023-04-15T03:42:12;100315.02;;;10.44;66.04
79376;BME280;68846;53.150;18.136;2023-04-15T03:44:39;100314.33;;;10.45;66.02
79376;BME280;68846;53.150;18.136;2023-04-15T03:47:06;100316.09;;;10.48;66.05
79376;BME280;68846;53.150;18.136;2023-04-15T03:49:34;100317.16;;;10.50;66.07
79376;BME280;68846;53.150;18.136;2023-04-15T03:52:01;100314.33;;;10.50;65.87
79376;BME280;68846;53.150;18.136;2023-04-15T03:54:28;100311.87;;;10.50;65.99
79376;BME280;68846;53.150;18.136;2023-04-15T03:56:55;100311.69;;;10.48;66.15
79376;BME280;68846;53.150;18.136;2023-04-15T03:59:22;100312.04;;;10.45;65.87
79376;BME280;68846;53.150;18.136;2023-04-15T04:01:49;100312.39;;;10.45;66.42
79376;BME280;68846;53.150;18.136;2023-04-15T04:04:16;100313.45;;;10.49;66.05
79376;BME280;68846;53.150;18.136;2023-04-15T04:06:43;100321.21;;;10.53;65.90
79376;BME280;68846;53.150;18.136;2023-04-15T04:09:09;100319.46;;;10.55;65.90
79376;BME280;68846;53.150;18.136;2023-04-15T04:11:37;100319.29;;;10.54;66.12
79376;BME280;68846;53.150;18.136;2023-04-15T04:14:04;100319.64;;;10.51;66.03
79376;BME280;68846;53.150;18.136;2023-04-15T04:16:31;100318.21;;;10.49;66.09
79376;BME280;68846;53.150;18.136;2023-04-15T04:18:58;100316.47;;;10.51;66.01
79376;BME280;68846;53.150;18.136;2023-04-15T04:21:24;100318.75;;;10.51;66.43
79376;BME280;68846;53.150;18.136;2023-04-15T04:23:52;100309.75;;;10.46;66.09
79376;BME280;68846;53.150;18.136;2023-04-15T04:26:18;100317.88;;;10.51;66.26
79376;BME280;68846;53.150;18.136;2023-04-15T04:28:46;100320.33;;;10.49;66.16
79376;BME280;68846;53.150;18.136;2023-04-15T04:31:12;100321.39;;;10.49;66.09
79376;BME280;68846;53.150;18.136;2023-04-15T04:33:39;100321.58;;;10.51;66.22
79376;BME280;68846;53.150;18.136;2023-04-15T04:36:06;100320.86;;;10.53;66.30
79376;BME280;68846;53.150;18.136;2023-04-15T04:38:33;100322.13;;;10.56;66.18
79376;BME280;68846;53.150;18.136;2023-04-15T04:41:00;100311.72;;;10.56;66.26
79376;BME280;68846;53.150;18.136;2023-04-15T04:43:27;100321.11;;;10.67;66.31
79376;BME280;68846;53.150;18.136;2023-04-15T04:45:54;100322.54;;;10.71;66.01
79376;BME280;68846;53.150;18.136;2023-04-15T04:48:22;100322.71;;;10.71;66.07
79376;BME280;68846;53.150;18.136;2023-04-15T04:50:48;100316.01;;;10.65;66.06
79376;BME280;68846;53.150;18.136;2023-04-15T04:53:15;100320.56;;;10.62;65.99
79376;BME280;68846;53.150;18.136;2023-04-15T04:55:42;100323.92;;;10.66;66.17
79376;BME280;68846;53.150;18.136;2023-04-15T04:58:09;100324.98;;;10.64;65.98
79376;BME280;68846;53.150;18.136;2023-04-15T05:00:36;100314.91;;;10.56;66.09
79376;BME280;68846;53.150;18.136;2023-04-15T05:03:04;100327.08;;;10.61;66.27
79376;BME280;68846;53.150;18.136;2023-04-15T05:05:31;100324.95;;;10.59;66.17
79376;BME280;68846;53.150;18.136;2023-04-15T05:07:57;100318.79;;;10.58;66.18
79376;BME280;68846;53.150;18.136;2023-04-15T05:10:24;100327.27;;;10.64;66.19
79376;BME280;68846;53.150;18.136;2023-04-15T05:12:51;100319.33;;;10.62;65.98
79376;BME280;68846;53.150;18.136;2023-04-15T05:15:19;100329.77;;;10.72;66.13
79376;BME280;68846;53.150;18.136;2023-04-15T05:17:45;100327.50;;;10.76;66.20
79376;BME280;68846;53.150;18.136;2023-04-15T05:20:13;100328.20;;;10.76;66.10
79376;BME280;68846;53.150;18.136;2023-04-15T05:22:40;100332.97;;;10.75;66.18
79376;BME280;68846;53.150;18.136;2023-04-15T05:25:07;100325.34;;;10.67;66.11
79376;BME280;68846;53.150;18.136;2023-04-15T05:27:35;100324.46;;;10.66;66.18
79376;BME280;68846;53.150;18.136;2023-04-15T05:30:02;100335.92;;;10.71;66.28
79376;BME280;68846;53.150;18.136;2023-04-15T05:32:29;100329.92;;;10.65;66.14
79376;BME280;68846;53.150;18.136;2023-04-15T05:34:56;100338.57;;;10.71;66.28
79376;BME280;68846;53.150;18.136;2023-04-15T05:37:22;100341.38;;;10.70;66.38
79376;BME280;68846;53.150;18.136;2023-04-15T05:39:49;100341.92;;;10.68;66.43
79376;BME280;68846;53.150;18.136;2023-04-15T05:42:16;100341.92;;;10.69;66.47
79376;BME280;68846;53.150;18.136;2023-04-15T05:44:43;100339.97;;;10.70;66.73
79376;BME280;68846;53.150;18.136;2023-04-15T05:47:10;100344.55;;;10.71;66.69
79376;BME280;68846;53.150;18.136;2023-04-15T05:49:37;100343.15;;;10.72;67.33
79376;BME280;68846;53.150;18.136;2023-04-15T05:52:05;100344.38;;;10.69;67.65
79376;BME280;68846;53.150;18.136;2023-04-15T05:54:31;100344.02;;;10.67;67.91
79376;BME280;68846;53.150;18.136;2023-04-15T05:56:58;100344.86;;;10.60;68.80
79376;BME280;68846;53.150;18.136;2023-04-15T05:59:25;100352.39;;;10.54;69.24
79376;BME280;68846;53.150;18.136;2023-04-15T06:01:52;100356.40;;;10.46;69.31
79376;BME280;68846;53.150;18.136;2023-04-15T06:04:19;100359.04;;;10.45;69.34
79376;BME280;68846;53.150;18.136;2023-04-15T06:06:46;100349.66;;;10.39;69.81
79376;BME280;68846;53.150;18.136;2023-04-15T06:09:13;100360.98;;;10.43;69.82
79376;BME280;68846;53.150;18.136;2023-04-15T06:11:40;100366.09;;;10.45;70.93
79376;BME280;68846;53.150;18.136;2023-04-15T06:14:07;100370.30;;;10.44;71.03
79376;BME280;68846;53.150;18.136;2023-04-15T06:16:33;100369.24;;;10.44;71.03
79376;BME280;68846;53.150;18.136;2023-04-15T06:19:02;100365.51;;;10.40;70.79
79376;BME280;68846;53.150;18.136;2023-04-15T06:21:29;100370.45;;;10.41;71.52
79376;BME280;68846;53.150;18.136;2023-04-15T06:23:58;100373.39;;;10.34;71.15
79376;BME280;68846;53.150;18.136;2023-04-15T06:26:28;100374.41;;;10.30;71.81
79376;BME280;68846;53.150;18.136;2023-04-15T06:28:55;100377.58;;;10.27;71.98
79376;BME280;68846;53.150;18.136;2023-04-15T06:31:22;100379.15;;;10.27;72.46
79376;BME280;68846;53.150;18.136;2023-04-15T06:33:49;100374.94;;;10.27;72.31
79376;BME280;68846;53.150;18.136;2023-04-15T06:36:16;100366.98;;;10.25;72.80
79376;BME280;68846;53.150;18.136;2023-04-15T06:38:43;100374.08;;;10.32;72.38
79376;BME280;68846;53.150;18.136;2023-04-15T06:41:09;100378.86;;;10.35;72.42
79376;BME280;68846;53.150;18.136;2023-04-15T06:43:37;100375.90;;;10.39;72.90
79376;BME280;68846;53.150;18.136;2023-04-15T06:46:04;100382.77;;;10.38;72.57
79376;BME280;68846;53.150;18.136;2023-04-15T06:48:31;100379.23;;;10.38;72.82
79376;BME280;68846;53.150;18.136;2023-04-15T06:50:59;100382.90;;;10.36;72.97
79376;BME280;68846;53.150;18.136;2023-04-15T06:53:25;100386.77;;;10.35;72.58
79376;BME280;68846;53.150;18.136;2023-04-15T06:55:54;100386.58;;;10.32;73.18
79376;BME280;68846;53.150;18.136;2023-04-15T06:58:21;100385.50;;;10.30;73.09
79376;BME280;68846;53.150;18.136;2023-04-15T07:00:48;100386.91;;;10.30;73.23
79376;BME280;68846;53.150;18.136;2023-04-15T07:03:15;100387.08;;;10.29;73.40
79376;BME280;68846;53.150;18.136;2023-04-15T07:05:42;100397.30;;;10.31;73.16
79376;BME280;68846;53.150;18.136;2023-04-15T07:08:09;100394.48;;;10.30;73.23
79376;BME280;68846;53.150;18.136;2023-04-15T07:10:35;100402.74;;;10.27;73.53
79376;BME280;68846;53.150;18.136;2023-04-15T07:13:03;100402.15;;;10.23;73.43
79376;BME280;68846;53.150;18.136;2023-04-15T07:15:30;100402.48;;;10.22;73.53
79376;BME280;68846;53.150;18.136;2023-04-15T07:17:56;100405.48;;;10.22;73.52
79376;BME280;68846;53.150;18.136;2023-04-15T07:20:23;100394.58;;;10.20;73.47
79376;BME280;68846;53.150;18.136;2023-04-15T07:22:51;100408.20;;;10.26;73.81
79376;BME280;68846;53.150;18.136;2023-04-15T07:25:18;100410.66;;;10.27;73.60
79376;BME280;68846;53.150;18.136;2023-04-15T07:27:46;100415.23;;;10.27;73.72
79376;BME280;68846;53.150;18.136;2023-04-15T07:30:13;100419.98;;;10.26;74.03
79376;BME280;68846;53.150;18.136;2023-04-15T07:32:41;100416.77;;;10.24;74.22
79376;BME280;68846;53.150;18.136;2023-04-15T07:35:08;100419.20;;;10.22;74.58
79376;BME280;68846;53.150;18.136;2023-04-15T07:37:35;100418.49;;;10.21;74.70
79376;BME280;68846;53.150;18.136;2023-04-15T07:40:02;100417.27;;;10.22;74.68
79376;BME280;68846;53.150;18.136;2023-04-15T07:42:33;100419.91;;;10.22;74.70
79376;BME280;68846;53.150;18.136;2023-04-15T07:45:00;100419.91;;;10.22;74.72
79376;BME280;68846;53.150;18.136;2023-04-15T07:47:27;100421.16;;;10.23;74.86
79376;BME280;68846;53.150;18.136;2023-04-15T07:49:54;100423.86;;;10.27;74.74
79376;BME280;68846;53.150;18.136;2023-04-15T07:52:21;100421.41;;;10.30;74.73
79376;BME280;68846;53.150;18.136;2023-04-15T07:54:48;100413.27;;;10.26;74.97
79376;BME280;68846;53.150;18.136;2023-04-15T07:57:16;100421.05;;;10.28;75.00
79376;BME280;68846;53.150;18.136;2023-04-15T07:59:44;100425.98;;;10.27;74.58
79376;BME280;68846;53.150;18.136;2023-04-15T08:02:11;100424.74;;;10.28;75.02
79376;BME280;68846;53.150;18.136;2023-04-15T08:04:38;100426.86;;;10.30;75.18
79376;BME280;68846;53.150;18.136;2023-04-15T08:07:06;100428.45;;;10.31;75.35
79376;BME280;68846;53.150;18.136;2023-04-15T08:09:34;100429.52;;;10.33;74.90
79376;BME280;68846;53.150;18.136;2023-04-15T08:12:02;100427.60;;;10.36;75.02
79376;BME280;68846;53.150;18.136;2023-04-15T08:14:29;100428.17;;;10.40;75.20
79376;BME280;68846;53.150;18.136;2023-04-15T08:16:55;100429.97;;;10.44;75.11
79376;BME280;68846;53.150;18.136;2023-04-15T08:19:22;100431.21;;;10.45;74.92
79376;BME280;68846;53.150;18.136;2023-04-15T08:21:50;100429.45;;;10.46;74.79
79376;BME280;68846;53.150;18.136;2023-04-15T08:24:17;100432.31;;;10.50;74.80
79376;BME280;68846;53.150;18.136;2023-04-15T08:26:45;100432.67;;;10.52;74.58
79376;BME280;68846;53.150;18.136;2023-04-15T08:29:13;100435.30;;;10.53;74.69
79376;BME280;68846;53.150;18.136;2023-04-15T08:31:40;100422.24;;;10.47;74.85
79376;BME280;68846;53.150;18.136;2023-04-15T08:34:07;100437.26;;;10.54;74.88
79376;BME280;68846;53.150;18.136;2023-04-15T08:36:34;100438.35;;;10.57;74.88
79376;BME280;68846;53.150;18.136;2023-04-15T08:39:01;100440.45;;;10.57;74.81
79376;BME280;68846;53.150;18.136;2023-04-15T08:41:44;100442.59;;;10.60;74.91
79376;BME280;68846;53.150;18.136;2023-04-15T08:44:13;100443.30;;;10.61;74.77
79376;BME280;68846;53.150;18.136;2023-04-15T08:46:41;100434.48;;;10.60;74.62
79376;BME280;68846;53.150;18.136;2023-04-15T08:49:12;100445.98;;;10.67;74.86
79376;BME280;68846;53.150;18.136;2023-04-15T08:51:39;100447.91;;;10.67;74.60
79376;BME280;68846;53.150;18.136;2023-04-15T08:54:09;100446.67;;;10.66;74.80
79376;BME280;68846;53.150;18.136;2023-04-15T08:56:37;100451.08;;;10.66;74.91
79376;BME280;68846;53.150;18.136;2023-04-15T08:59:05;100446.88;;;10.70;74.94
79376;BME280;68846;53.150;18.136;2023-04-15T09:01:33;100448.82;;;10.72;75.26
79376;BME280;68846;53.150;18.136;2023-04-15T09:04:02;100452.20;;;10.75;75.05
79376;BME280;68846;53.150;18.136;2023-04-15T09:06:29;100451.86;;;10.77;75.22
79376;BME280;68846;53.150;18.136;2023-04-15T09:08:56;100448.71;;;10.81;75.28
79376;BME280;68846;53.150;18.136;2023-04-15T09:11:23;100451.04;;;10.87;75.22
79376;BME280;68846;53.150;18.136;2023-04-15T09:13:50;100449.98;;;10.91;74.87
79376;BME280;68846;53.150;18.136;2023-04-15T09:16:17;100451.25;;;10.93;75.29
79376;BME280;68846;53.150;18.136;2023-04-15T09:18:45;100442.73;;;10.81;75.06
79376;BME280;68846;53.150;18.136;2023-04-15T09:21:16;100452.59;;;10.83;75.12
79376;BME280;68846;53.150;18.136;2023-04-15T09:23:56;100449.77;;;10.81;75.39
79376;BME280;68846;53.150;18.136;2023-04-15T09:26:34;100450.83;;;10.81;75.22
79376;BME280;68846;53.150;18.136;2023-04-15T09:29:07;100451.01;;;10.82;75.32
79376;BME280;68846;53.150;18.136;2023-04-15T09:31:35;100450.31;;;10.85;75.39
79376;BME280;68846;53.150;18.136;2023-04-15T09:34:03;100450.52;;;10.88;75.30
79376;BME280;68846;53.150;18.136;2023-04-15T09:39:12;100451.61;;;10.93;75.37
79376;BME280;68846;53.150;18.136;2023-04-15T09:41:39;100454.42;;;10.94;75.42
79376;BME280;68846;53.150;18.136;2023-04-15T09:44:21;100452.86;;;10.98;75.44
79376;BME280;68846;53.150;18.136;2023-04-15T09:46:48;100452.70;;;11.02;75.52
79376;BME280;68846;53.150;18.136;2023-04-15T09:49:15;100455.38;;;11.07;75.37
79376;BME280;68846;53.150;18.136;2023-04-15T09:51:43;100452.94;;;11.12;75.53
79376;BME280;68846;53.150;18.136;2023-04-15T09:54:10;100453.31;;;11.17;74.99
79376;BME280;68846;53.150;18.136;2023-04-15T09:56:37;100457.91;;;11.21;75.37
79376;BME280;68846;53.150;18.136;2023-04-15T09:59:08;100461.98;;;11.22;75.56
79376;BME280;68846;53.150;18.136;2023-04-15T10:01:35;100461.25;;;11.18;74.94
79376;BME280;68846;53.150;18.136;2023-04-15T10:04:03;100460.20;;;11.17;75.35
79376;BME280;68846;53.150;18.136;2023-04-15T10:06:31;100457.90;;;11.20;75.35
79376;BME280;68846;53.150;18.136;2023-04-15T10:08:59;100457.23;;;11.26;75.28
79376;BME280;68846;53.150;18.136;2023-04-15T10:11:29;100457.44;;;11.33;75.17
79376;BME280;68846;53.150;18.136;2023-04-15T10:13:57;100455.01;;;11.40;75.30
79376;BME280;68846;53.150;18.136;2023-04-15T10:16:26;100460.30;;;11.43;75.14
79376;BME280;68846;53.150;18.136;2023-04-15T10:18:56;100460.12;;;11.42;75.04
79376;BME280;68846;53.150;18.136;2023-04-15T10:21:27;100460.63;;;11.37;74.83
79376;BME280;68846;53.150;18.136;2023-04-15T10:23:55;100458.84;;;11.33;74.63
79376;BME280;68846;53.150;18.136;2023-04-15T10:26:23;100458.48;;;11.31;74.75
79376;BME280;68846;53.150;18.136;2023-04-15T10:28:50;100461.66;;;11.28;75.12
79376;BME280;68846;53.150;18.136;2023-04-15T10:31:19;100459.70;;;11.27;75.17
79376;BME280;68846;53.150;18.136;2023-04-15T10:33:48;100465.36;;;11.29;75.28
79376;BME280;68846;53.150;18.136;2023-04-15T10:36:17;100463.06;;;11.30;74.91
79376;BME280;68846;53.150;18.136;2023-04-15T10:38:45;100465.53;;;11.31;75.01
79376;BME280;68846;53.150;18.136;2023-04-15T10:43:45;100465.16;;;11.28;74.96
79376;BME280;68846;53.150;18.136;2023-04-15T10:46:12;100467.45;;;11.25;75.01
79376;BME280;68846;53.150;18.136;2023-04-15T10:48:46;100472.56;;;11.23;75.31
79376;BME280;68846;53.150;18.136;2023-04-15T10:51:13;100473.63;;;11.26;75.38
79376;BME280;68846;53.150;18.136;2023-04-15T10:53:41;100468.36;;;11.29;75.63
79376;BME280;68846;53.150;18.136;2023-04-15T10:56:09;100466.95;;;11.31;75.78
79376;BME280;68846;53.150;18.136;2023-04-15T10:58:41;100469.63;;;11.35;75.96
79376;BME280;68846;53.150;18.136;2023-04-15T11:01:08;100473.14;;;11.36;75.57
79376;BME280;68846;53.150;18.136;2023-04-15T11:03:41;100473.67;;;11.36;75.70
79376;BME280;68846;53.150;18.136;2023-04-15T11:06:10;100479.48;;;11.37;75.72
79376;BME280;68846;53.150;18.136;2023-04-15T11:08:54;100468.35;;;11.29;75.72
79376;BME280;68846;53.150;18.136;2023-04-15T11:11:22;100471.13;;;11.18;75.86
79376;BME280;68846;53.150;18.136;2023-04-15T11:13:50;100484.71;;;11.24;75.78
79376;BME280;68846;53.150;18.136;2023-04-15T11:16:19;100474.83;;;11.20;75.89
79376;BME280;68846;53.150;18.136;2023-04-15T11:18:52;100484.23;;;11.28;76.04
79376;BME280;68846;53.150;18.136;2023-04-15T11:21:24;100488.25;;;11.25;76.02
79376;BME280;68846;53.150;18.136;2023-04-15T11:23:51;100487.36;;;11.25;75.76
79376;BME280;68846;53.150;18.136;2023-04-15T11:26:18;100491.95;;;11.26;76.10
79376;BME280;68846;53.150;18.136;2023-04-15T11:28:51;100491.25;;;11.26;76.13
79376;BME280;68846;53.150;18.136;2023-04-15T11:31:18;100491.58;;;11.20;75.85
79376;BME280;68846;53.150;18.136;2023-04-15T11:33:56;100493.15;;;11.19;76.21
79376;BME280;68846;53.150;18.136;2023-04-15T11:36:26;100497.55;;;11.20;76.43
79376;BME280;68846;53.150;18.136;2023-04-15T11:38:53;100497.73;;;11.19;76.17
79376;BME280;68846;53.150;18.136;2023-04-15T11:41:22;100481.44;;;11.05;76.25
79376;BME280;68846;53.150;18.136;2023-04-15T11:43:50;100500.17;;;11.13;76.20
79376;BME280;68846;53.150;18.136;2023-04-15T11:46:17;100500.52;;;11.14;76.17
79376;BME280;68846;53.150;18.136;2023-04-15T11:48:45;100501.40;;;11.13;76.11
79376;BME280;68846;53.150;18.136;2023-04-15T11:51:13;100496.63;;;11.09;76.16
79376;BME280;68846;53.150;18.136;2023-04-15T11:56:08;100490.41;;;10.99;77.07
79376;BME280;68846;53.150;18.136;2023-04-15T11:58:37;100502.39;;;11.00;76.69
79376;BME280;68846;53.150;18.136;2023-04-15T12:01:05;100503.61;;;10.99;76.55
79376;BME280;68846;53.150;18.136;2023-04-15T12:03:36;100502.73;;;11.02;76.44
79376;BME280;68846;53.150;18.136;2023-04-15T12:06:18;100507.15;;;11.02;76.65
79376;BME280;68846;53.150;18.136;2023-04-15T12:08:55;100507.33;;;11.03;76.78
79376;BME280;68846;53.150;18.136;2023-04-15T12:14:11;100516.55;;;11.11;76.65
79376;BME280;68846;53.150;18.136;2023-04-15T12:16:46;100515.16;;;11.13;76.81
79376;BME280;68846;53.150;18.136;2023-04-15T12:19:26;100514.96;;;11.10;76.62
79376;BME280;68846;53.150;18.136;2023-04-15T12:22:00;100516.03;;;11.11;76.93
79376;BME280;68846;53.150;18.136;2023-04-15T12:24:30;100514.97;;;11.13;77.09
79376;BME280;68846;53.150;18.136;2023-04-15T12:27:01;100516.09;;;11.23;76.88
79376;BME280;68846;53.150;18.136;2023-04-15T12:29:29;100517.19;;;11.30;76.94
79376;BME280;68846;53.150;18.136;2023-04-15T12:32:05;100514.73;;;11.33;76.75
79376;BME280;68846;53.150;18.136;2023-04-15T12:34:49;100516.69;;;11.36;76.87
79376;BME280;68846;53.150;18.136;2023-04-15T12:37:17;100512.08;;;11.32;76.58
79376;BME280;68846;53.150;18.136;2023-04-15T12:39:47;100520.39;;;11.37;76.84
79376;BME280;68846;53.150;18.136;2023-04-15T12:42:15;100523.39;;;11.37;76.51
79376;BME280;68846;53.150;18.136;2023-04-15T12:44:42;100520.21;;;11.36;76.63
79376;BME280;68846;53.150;18.136;2023-04-15T12:47:11;100523.04;;;11.36;76.62
79376;BME280;68846;53.150;18.136;2023-04-15T12:49:38;100522.35;;;11.40;76.64
79376;BME280;68846;53.150;18.136;2023-04-15T12:52:05;100525.73;;;11.45;76.58
79376;BME280;68846;53.150;18.136;2023-04-15T12:54:32;100513.38;;;11.43;76.77